Time;durP1;ratioP1;P1;durP2;ratioP2;P2;SDS_P1;SDS_P2;PMS_P1;PMS_P2;Temp;Humidity;BMP_temperature;BMP_pressure;BME280_temperature;BME280_humidity;BME280_pressure;Samples;Min_cycle;Max_cycle;Signal;HPM_P1;HPM_P2
2021/04/19 00:00:43;;;;;;;10.10;7.90;;;;;;;6.96;73.21;97021.64;1704592;84;21145;-81
2021/04/19 00:03:12;;;;;;;8.83;6.83;;;;;;;6.91;73.14;97024.58;1711331;84;21121;-80
2021/04/19 00:05:40;;;;;;;12.15;7.85;;;;;;;6.95;73.27;97023.89;1711833;84;21620;-79
2021/04/19 00:08:08;;;;;;;11.38;7.50;;;;;;;6.88;73.64;97021.70;1708916;83;21176;-80
2021/04/19 00:10:36;;;;;;;10.93;7.47;;;;;;;6.91;73.22;97023.27;1699946;84;21172;-80
2021/04/19 00:13:03;;;;;;;8.03;7.10;;;;;;;6.80;73.19;97022.67;1697510;84;21239;-79
2021/04/19 00:15:31;;;;;;;8.10;6.75;;;;;;;6.80;73.19;97022.67;1695999;84;21157;-81
2021/04/19 00:17:59;;;;;;;12.00;7.90;;;;;;;6.78;73.64;97020.63;1711731;84;21144;-82
2021/04/19 00:20:27;;;;;;;10.18;8.30;;;;;;;6.73;73.13;97018.76;1705876;84;21129;-80
2021/04/19 00:22:57;;;;;;;8.58;7.25;;;;;;;6.77;73.56;97018.94;1686634;84;21339;-82
2021/04/19 00:25:24;;;;;;;9.73;8.13;;;;;;;6.79;73.50;97014.45;1717631;83;21680;-82
2021/04/19 00:27:52;;;;;;;9.90;7.90;;;;;;;6.88;73.58;97014.28;1717418;83;21263;-80
2021/04/19 00:30:21;;;;;;;8.23;7.33;;;;;;;6.99;73.81;97003.93;1705417;83;21141;-81
2021/04/19 00:32:48;;;;;;;8.33;7.10;;;;;;;7.12;73.60;97007.05;1720481;83;21306;-80
2021/04/19 00:35:16;;;;;;;8.60;7.15;;;;;;;7.23;73.77;97005.00;1720466;83;21137;-82
2021/04/19 00:37:43;;;;;;;7.80;7.00;;;;;;;7.25;73.56;97004.42;1699030;83;21294;-80
2021/04/19 00:40:16;;;;;;;8.73;6.85;;;;;;;7.31;73.55;96998.75;1694273;83;21131;-81
2021/04/19 00:42:46;;;;;;;7.87;5.35;;;;;;;7.28;73.59;96989.80;1701290;83;21148;-80
2021/04/19 00:45:16;;;;;;;9.43;6.72;;;;;;;7.28;73.59;96989.80;1685641;83;21127;-81
2021/04/19 00:47:47;;;;;;;5.95;4.30;;;;;;;7.13;74.02;97000.86;1711568;83;21101;-80
2021/04/19 00:50:22;;;;;;;11.18;8.40;;;;;;;6.99;75.45;97004.42;1714247;83;21153;-81
2021/04/19 00:52:51;;;;;;;10.30;7.97;;;;;;;6.88;74.65;96998.11;1719805;83;21297;-81
2021/04/19 00:55:19;;;;;;;7.42;5.33;;;;;;;6.81;74.15;96994.23;1717567;83;21148;-82
2021/04/19 00:57:46;;;;;;;9.40;7.75;;;;;;;6.81;74.15;96994.23;1691492;84;21144;-80
2021/04/19 01:00:22;;;;;;;11.35;8.08;;;;;;;6.81;74.05;96998.61;1705702;83;21246;-83
2021/04/19 01:02:50;;;;;;;8.18;6.53;;;;;;;6.82;73.93;97001.12;1720400;83;21269;-82
2021/04/19 01:05:29;;;;;;;9.28;7.40;;;;;;;6.85;73.90;96997.00;1692985;83;21145;-83
2021/04/19 01:07:57;;;;;;;11.08;7.50;;;;;;;6.88;74.28;96994.18;1721282;83;21255;-82
2021/04/19 01:10:25;;;;;;;10.25;7.78;;;;;;;6.83;74.49;96988.88;1705345;83;21294;-84
2021/04/19 01:12:52;;;;;;;11.43;7.53;;;;;;;6.81;74.55;96993.38;1695290;83;21274;-80
2021/04/19 01:15:20;;;;;;;10.55;8.35;;;;;;;6.77;74.40;96991.43;1702497;83;21140;-81
2021/04/19 01:17:49;;;;;;;11.03;7.47;;;;;;;6.76;74.88;96994.98;1720248;83;21231;-81
2021/04/19 01:20:22;;;;;;;10.35;7.75;;;;;;;6.82;74.67;96993.26;1719926;83;21160;-81
2021/04/19 01:22:50;;;;;;;9.90;5.33;;;;;;;6.87;75.11;96991.19;1719985;83;21306;-82
2021/04/19 01:25:27;;;;;;;8.20;5.65;;;;;;;6.92;74.86;96996.58;1716794;83;21192;-82
2021/04/19 01:27:56;;;;;;;9.30;8.08;;;;;;;6.86;75.03;96991.30;1713107;84;21101;-82
2021/04/19 01:30:39;;;;;;;10.20;7.62;;;;;;;6.72;76.63;96993.53;1709520;84;21124;-81
2021/04/19 01:33:06;;;;;;;9.33;7.05;;;;;;;6.61;75.51;96989.47;1702042;84;21140;-80
2021/04/19 01:35:36;;;;;;;8.53;6.17;;;;;;;6.51;76.12;96990.07;1712727;83;21303;-80
2021/04/19 01:38:06;;;;;;;9.88;6.92;;;;;;;6.43;76.45;96984.95;1712554;84;21564;-83
2021/04/19 01:40:33;;;;;;;9.45;7.92;;;;;;;6.39;76.51;96993.48;1704448;84;21239;-79
2021/04/19 01:43:02;;;;;;;11.50;8.00;;;;;;;6.38;75.94;96986.56;1698315;84;21117;-82
2021/04/19 01:45:31;;;;;;;11.75;7.20;;;;;;;6.37;76.45;96986.19;1706128;84;21135;-82
2021/04/19 01:47:59;;;;;;;11.10;7.50;;;;;;;6.40;76.37;96992.06;1685327;84;21283;-84
2021/04/19 01:50:29;;;;;;;9.33;7.40;;;;;;;6.39;76.38;96990.86;1708041;84;21128;-80
2021/04/19 01:52:59;;;;;;;9.80;7.45;;;;;;;6.41;76.18;96988.51;1711645;84;21132;-80
2021/04/19 01:55:31;;;;;;;12.65;8.73;;;;;;;6.45;76.14;96983.91;1699420;84;21148;-80
2021/04/19 01:58:12;;;;;;;9.35;6.75;;;;;;;6.48;76.66;96982.89;1663679;85;21569;-79
2021/04/19 02:00:43;;;;;;;12.13;8.08;;;;;;;6.54;76.56;96987.71;1697080;84;21163;-79
2021/04/19 02:03:22;;;;;;;10.95;8.13;;;;;;;6.56;76.17;96990.59;1704624;84;21132;-80
2021/04/19 02:06:26;;;;;;;11.83;7.87;;;;;;;6.61;76.41;96990.78;1651879;85;21167;-81
2021/04/19 02:09:04;;;;;;;8.20;6.72;;;;;;;6.72;76.25;96990.91;1705965;84;21097;-81
2021/04/19 02:11:54;;;;;;;10.48;7.10;;;;;;;6.77;76.04;96993.23;1700249;84;21131;-80
2021/04/19 02:15:04;;;;;;;14.60;8.05;;;;;;;6.72;75.47;96983.88;1685939;84;21263;-81
2021/04/19 02:17:47;;;;;;;11.05;7.97;;;;;;;6.72;75.79;96989.60;1645136;87;21286;-79
2021/04/19 02:20:29;;;;;;;8.40;6.35;;;;;;;6.78;75.69;96990.95;1645163;87;21330;-80
2021/04/19 02:23:30;;;;;;;5.72;4.42;;;;;;;6.82;75.59;96993.74;1678599;85;21148;-81
2021/04/19 02:26:19;;;;;;;10.23;7.70;;;;;;;6.76;76.88;96988.92;1748988;81;21829;-80
2021/04/19 02:29:01;;;;;;;8.95;7.67;;;;;;;6.69;76.95;96989.31;1764903;81;21126;-79
2021/04/19 02:31:36;;;;;;;11.53;8.95;;;;;;;6.63;76.40;96989.73;1742885;81;21118;-81
2021/04/19 02:34:10;;;;;;;11.03;8.73;;;;;;;6.60;76.01;96985.98;1749331;81;21135;-80
2021/04/19 02:36:44;;;;;;;14.13;9.13;;;;;;;6.64;75.56;96987.94;1748599;81;21122;-79
2021/04/19 02:39:14;;;;;;;12.28;9.80;;;;;;;6.59;76.39;96986.10;1711592;83;21190;-80
2021/04/19 02:41:45;;;;;;;11.38;8.73;;;;;;;6.58;76.16;96986.59;1729267;83;21180;-80
2021/04/19 02:44:14;;;;;;;11.48;9.10;;;;;;;6.65;76.09;96989.61;1729164;83;21298;-80
2021/04/19 02:46:56;;;;;;;11.53;8.08;;;;;;;6.71;76.03;96986.12;1706716;84;21616;-81
2021/04/19 02:49:29;;;;;;;12.40;8.88;;;;;;;6.79;75.75;96985.63;1677438;84;21576;-79
2021/04/19 02:52:01;;;;;;;11.25;8.90;;;;;;;6.81;76.11;96982.89;1697656;84;21262;-81
2021/04/19 02:54:31;;;;;;;11.00;7.83;;;;;;;6.84;75.63;96988.77;1728774;83;21143;-79
2021/04/19 02:56:59;;;;;;;15.32;8.50;;;;;;;6.82;75.79;96986.70;1681010;85;21249;-81
2021/04/19 02:59:29;;;;;;;7.97;5.95;;;;;;;6.77;76.13;96984.05;1674007;86;21199;-80
2021/04/19 03:02:06;;;;;;;11.93;8.38;;;;;;;6.76;76.40;96983.69;1725943;83;21111;-80
2021/04/19 03:04:38;;;;;;;13.43;8.65;;;;;;;6.68;76.00;96978.95;1703673;84;21183;-80
2021/04/19 03:07:09;;;;;;;10.20;7.55;;;;;;;6.65;76.40;96976.06;1711148;83;21310;-81
2021/04/19 03:09:59;;;;;;;9.20;6.22;;;;;;;6.68;76.45;96978.95;1727195;83;21150;-80
2021/04/19 03:12:31;;;;;;;11.20;8.53;;;;;;;6.63;76.79;96972.70;1701292;83;21131;-80
2021/04/19 03:15:05;;;;;;;11.30;7.92;;;;;;;6.59;76.34;96971.22;1706137;84;21273;-82
2021/04/19 03:17:35;;;;;;;7.58;5.22;;;;;;;6.62;76.55;96972.81;1681036;84;21316;-82
2021/04/19 03:20:15;;;;;;;10.10;7.05;;;;;;;6.66;77.62;96972.51;1723087;83;21605;-80
2021/04/19 03:23:00;;;;;;;8.88;7.83;;;;;;;6.65;76.73;96971.28;1727525;83;21195;-79
2021/04/19 03:25:30;;;;;;;11.50;7.80;;;;;;;6.64;76.23;96973.08;1714432;83;21156;-82
2021/04/19 03:27:59;;;;;;;11.80;7.65;;;;;;;6.61;76.29;96973.75;1714739;83;21162;-81
2021/04/19 03:30:28;;;;;;;11.43;8.33;;;;;;;6.66;76.54;96971.66;1712318;83;21267;-80
2021/04/19 03:32:59;;;;;;;11.08;9.20;;;;;;;6.74;76.48;96973.28;1714518;83;21115;-80
2021/04/19 03:35:35;;;;;;;10.23;7.78;;;;;;;6.81;76.33;96980.27;1711940;84;21148;-80
2021/04/19 03:38:05;;;;;;;11.68;9.75;;;;;;;6.75;76.35;96976.28;1712887;83;21333;-82
2021/04/19 03:40:34;;;;;;;13.00;10.40;;;;;;;6.68;76.02;96981.08;1698126;84;21158;-81
2021/04/19 03:43:08;;;;;;;14.07;10.70;;;;;;;6.69;76.27;96985.87;1711733;84;21306;-81
2021/04/19 03:45:39;;;;;;;13.85;11.05;;;;;;;6.73;76.18;96984.70;1689922;84;21154;-82
2021/04/19 03:48:27;;;;;;;11.90;9.75;;;;;;;6.79;76.14;96980.39;1723983;83;21131;-80
2021/04/19 03:51:02;;;;;;;11.97;8.75;;;;;;;6.86;75.78;96978.20;1715633;83;21159;-80
2021/04/19 03:53:31;;;;;;;10.78;9.05;;;;;;;6.84;75.49;96978.77;1712093;84;21605;-81
2021/04/19 03:56:03;;;;;;;12.05;9.05;;;;;;;6.76;76.05;96983.20;1713155;83;21154;-82
2021/04/19 03:58:34;;;;;;;12.00;8.60;;;;;;;6.67;75.91;96979.43;1716174;83;21895;-80
2021/04/19 04:01:06;;;;;;;12.88;8.50;;;;;;;6.64;76.10;96978.77;1724939;83;21142;-81
2021/04/19 04:03:41;;;;;;;10.58;8.78;;;;;;;6.63;76.58;96983.18;1720156;83;21157;-79
2021/04/19 04:06:15;;;;;;;12.80;10.72;;;;;;;6.57;77.21;96983.59;1712861;83;21172;-82
2021/04/19 04:08:43;;;;;;;13.43;8.65;;;;;;;6.55;76.71;96982.37;1720388;83;21259;-82
2021/04/19 04:11:14;;;;;;;9.83;7.25;;;;;;;6.59;77.17;96979.55;1703963;83;21157;-82
2021/04/19 04:13:44;;;;;;;13.00;9.98;;;;;;;6.61;77.14;96982.92;1730324;83;21618;-81
2021/04/19 04:16:12;;;;;;;10.58;9.15;;;;;;;6.59;77.03;96983.00;1725845;83;21594;-82
2021/04/19 04:18:42;;;;;;;11.80;9.28;;;;;;;6.61;77.08;96985.05;1724785;83;21607;-81
2021/04/19 04:21:11;;;;;;;16.05;9.48;;;;;;;6.65;77.02;96983.06;1712667;83;21135;-83
2021/04/19 04:23:39;;;;;;;15.35;10.53;;;;;;;6.70;76.91;96987.55;1712841;82;21840;-82
2021/04/19 04:26:08;;;;;;;13.90;10.23;;;;;;;6.79;76.97;96984.77;1686254;84;21198;-83
2021/04/19 04:28:38;;;;;;;12.88;10.58;;;;;;;6.94;76.98;96986.84;1683308;84;21147;-81
2021/04/19 04:31:09;;;;;;;13.22;10.03;;;;;;;7.08;76.89;96987.21;1708922;83;21884;-81
2021/04/19 04:33:47;;;;;;;11.43;9.43;;;;;;;7.28;76.77;96982.77;1821152;79;22933;-82
2021/04/19 04:36:17;;;;;;;12.15;10.25;;;;;;;7.30;76.38;96983.96;1793486;80;21242;-80
2021/04/19 04:38:46;;;;;;;13.03;10.98;;;;;;;7.26;76.05;96983.82;1794379;80;21542;-82
2021/04/19 04:41:15;;;;;;;13.25;11.60;;;;;;;7.26;76.19;96985.13;1790679;80;21231;-80
2021/04/19 04:43:45;;;;;;;18.12;12.37;;;;;;;7.23;75.97;96994.51;1795457;80;21108;-79
2021/04/19 04:46:36;;;;;;;15.53;12.93;;;;;;;7.22;76.05;96984.96;1794723;80;21263;-81
2021/04/19 04:49:20;;;;;;;10.43;8.35;;;;;;;7.16;76.16;96984.45;1765114;80;21718;-80
2021/04/19 04:51:51;;;;;;;15.48;10.85;;;;;;;7.16;76.16;96984.45;1783794;80;21275;-80
2021/04/19 04:54:21;;;;;;;14.13;11.80;;;;;;;7.00;76.11;96989.06;1790025;80;21294;-81
2021/04/19 04:56:56;;;;;;;13.53;9.85;;;;;;;6.99;76.31;96986.07;1787705;80;21129;-81
2021/04/19 04:59:26;;;;;;;16.17;13.43;;;;;;;6.99;76.31;96986.07;1731211;81;21281;-80
2021/04/19 05:01:56;;;;;;;15.70;12.18;;;;;;;7.01;76.70;96989.41;1724841;83;21289;-80
2021/04/19 05:04:27;;;;;;;19.73;13.93;;;;;;;7.07;76.30;96986.39;1722364;83;21129;-79
2021/04/19 05:06:55;;;;;;;16.07;13.45;;;;;;;7.10;76.40;96986.64;1724606;83;21109;-79
2021/04/19 05:09:23;;;;;;;14.70;11.95;;;;;;;7.15;76.52;96987.16;1720165;83;21148;-79
2021/04/19 05:11:50;;;;;;;15.75;12.33;;;;;;;7.19;76.25;96981.60;1733275;82;21168;-80
2021/04/19 05:14:26;;;;;;;15.55;12.40;;;;;;;7.34;76.61;96984.13;1734965;82;21168;-80
2021/04/19 05:16:53;;;;;;;14.30;10.50;;;;;;;7.34;76.61;96984.13;1743616;82;21156;-79
2021/04/19 05:19:21;;;;;;;14.68;11.95;;;;;;;7.38;75.85;96979.02;1731704;83;21156;-82
2021/04/19 05:21:49;;;;;;;14.68;11.33;;;;;;;7.59;75.99;96981.11;1727284;83;21281;-81
2021/04/19 05:24:17;;;;;;;17.55;12.45;;;;;;;7.59;75.99;96981.11;1726336;83;21290;-82
2021/04/19 05:26:44;;;;;;;8.65;6.65;;;;;;;7.61;75.59;96975.28;1730265;83;21212;-84
2021/04/19 05:29:13;;;;;;;12.95;9.35;;;;;;;7.45;75.19;96975.05;1729770;83;21252;-81
2021/04/19 05:31:41;;;;;;;14.38;11.60;;;;;;;7.45;75.19;96975.05;1727127;82;21608;-80
2021/04/19 05:34:09;;;;;;;15.35;9.98;;;;;;;7.41;75.31;96981.44;1682906;83;21443;-79
2021/04/19 05:36:39;;;;;;;9.63;8.00;;;;;;;7.28;75.68;96976.70;1666826;84;21683;-78
2021/04/19 05:39:07;;;;;;;16.40;12.73;;;;;;;7.19;75.95;96972.91;1720005;83;21160;-80
2021/04/19 05:41:38;;;;;;;15.28;12.53;;;;;;;7.19;75.95;96972.91;1719219;83;21156;-82
2021/04/19 05:44:07;;;;;;;21.27;13.30;;;;;;;7.19;75.75;96971.59;1715418;82;21581;-80
2021/04/19 05:46:34;;;;;;;15.58;12.30;;;;;;;7.23;76.04;96973.08;1711656;83;21117;-81
2021/04/19 05:49:02;;;;;;;16.40;12.13;;;;;;;7.32;75.57;96979.00;1713130;83;21287;-81
2021/04/19 05:51:38;;;;;;;15.83;12.53;;;;;;;7.39;75.57;96979.39;1715134;83;21153;-81
2021/04/19 05:54:06;;;;;;;13.85;11.08;;;;;;;7.44;75.48;96976.00;1703144;83;21561;-80
2021/04/19 05:56:39;;;;;;;14.87;11.70;;;;;;;7.49;75.26;96979.12;1681121;83;21192;-81
2021/04/19 05:59:23;;;;;;;15.30;12.35;;;;;;;7.50;75.35;96971.62;1718212;83;21152;-80
2021/04/19 06:01:55;;;;;;;11.48;9.90;;;;;;;7.49;75.15;96974.36;1717787;83;21176;-80
2021/04/19 06:04:46;;;;;;;17.73;13.75;;;;;;;7.49;75.28;96972.56;1685850;83;21129;-81
2021/04/19 06:07:20;;;;;;;19.77;14.70;;;;;;;7.50;75.14;96978.67;1689820;84;21152;-80
2021/04/19 06:10:24;;;;;;;19.27;15.72;;;;;;;7.55;75.04;96980.48;1780767;79;23107;-79
2021/04/19 06:12:59;;;;;;;18.85;15.65;;;;;;;7.52;75.02;96983.80;1723271;82;21215;-79
2021/04/19 06:15:28;;;;;;;23.07;17.55;;;;;;;7.55;74.63;96978.34;1695021;83;21675;-79
2021/04/19 06:17:58;;;;;;;10.70;7.20;;;;;;;7.58;74.67;96974.17;1723834;83;21160;-80
2021/04/19 06:20:28;;;;;;;26.07;16.17;;;;;;;7.61;74.59;96978.73;1724102;83;21128;-80
2021/04/19 06:22:58;;;;;;;25.77;14.23;;;;;;;7.61;74.54;96976.59;1703601;83;21317;-80
2021/04/19 06:25:27;;;;;;;16.70;12.68;;;;;;;7.74;74.42;96981.36;1700136;83;21151;-79
2021/04/19 06:28:04;;;;;;;16.73;12.90;;;;;;;7.74;74.42;96981.36;1723764;83;21581;-80
2021/04/19 06:30:41;;;;;;;19.85;12.43;;;;;;;7.83;74.36;96971.16;1702588;83;21162;-80
2021/04/19 06:33:05;;;;;;;11.78;10.53;;;;;;;7.98;74.56;96968.73;1706390;82;21096;-79
2021/04/19 06:35:32;;;;;;;17.27;10.72;;;;;;;8.16;73.58;96981.02;1715181;82;21176;-79
2021/04/19 06:38:00;;;;;;;13.80;10.90;;;;;;;8.16;73.58;96981.02;1708712;83;21175;-80
2021/04/19 06:40:28;;;;;;;12.43;10.95;;;;;;;8.24;73.92;96976.50;1696001;83;21168;-81
2021/04/19 06:42:57;;;;;;;19.87;13.62;;;;;;;8.30;73.25;96972.14;1724660;83;21127;-80
2021/04/19 06:45:26;;;;;;;17.13;12.80;;;;;;;8.36;73.41;96980.02;1718902;82;21163;-78
2021/04/19 06:47:58;;;;;;;13.50;11.10;;;;;;;8.31;73.25;96975.59;1714421;82;21150;-81
2021/04/19 06:50:25;;;;;;;13.22;11.60;;;;;;;8.39;73.26;96973.23;1694659;85;21131;-81
2021/04/19 06:52:54;;;;;;;16.23;13.22;;;;;;;8.40;73.25;96969.17;1722962;83;21580;-80
2021/04/19 06:55:22;;;;;;;14.38;12.18;;;;;;;8.44;72.91;96973.27;1722940;83;21216;-80
2021/04/19 06:57:57;;;;;;;17.55;14.03;;;;;;;8.47;72.35;96968.74;1694882;83;21171;-80
2021/04/19 07:00:29;;;;;;;14.98;12.10;;;;;;;8.53;72.48;96972.25;1723944;82;21612;-77
2021/04/19 07:02:59;;;;;;;13.75;11.70;;;;;;;8.61;72.48;96974.33;1723240;83;22309;-80
2021/04/19 07:05:32;;;;;;;14.55;11.45;;;;;;;8.67;72.01;96968.59;1662702;85;21574;-80
2021/04/19 07:08:31;;;;;;;15.30;10.13;;;;;;;8.59;71.87;96971.33;1681788;85;21232;-80
2021/04/19 07:11:06;;;;;;;12.95;10.58;;;;;;;8.70;71.97;96968.37;1679414;85;21719;-80
2021/04/19 07:13:36;;;;;;;14.45;10.18;;;;;;;8.80;71.96;96962.80;1679113;85;21207;-79
2021/04/19 07:16:05;;;;;;;11.63;10.03;;;;;;;8.90;71.91;96962.93;1678669;85;21183;-80
2021/04/19 07:18:34;;;;;;;13.18;10.43;;;;;;;8.97;71.52;96965.94;1679059;85;22304;-80
2021/04/19 07:21:06;;;;;;;15.53;10.28;;;;;;;9.10;70.66;96964.52;1679156;85;21175;-79
2021/04/19 07:26:20;;;;;;;12.40;10.18;;;;;;;9.22;70.31;96954.39;1825770;77;24246;-81
2021/04/19 07:28:47;;;;;;;17.07;11.05;;;;;;;9.27;70.41;96958.80;1827614;78;21132;-81
2021/04/19 07:31:16;;;;;;;14.43;9.93;;;;;;;9.36;69.93;96953.32;1803206;78;21153;-80
2021/04/19 07:33:43;;;;;;;11.65;10.45;;;;;;;9.55;69.77;96950.08;1805822;78;21127;-82
2021/04/19 07:36:29;;;;;;;10.30;8.43;;;;;;;9.52;68.82;96951.63;1811626;78;21130;-85
2021/04/19 07:39:03;;;;;;;12.85;11.35;;;;;;;9.52;68.60;96949.84;1811448;78;21147;-81
2021/04/19 07:41:55;;;;;;;12.43;11.12;;;;;;;9.46;67.80;96945.53;1801763;78;21119;-82
2021/04/19 07:44:50;;;;;;;12.85;11.10;;;;;;;9.62;68.89;96945.17;1810095;78;21166;-81
2021/04/19 07:47:38;;;;;;;13.83;9.80;;;;;;;9.96;68.89;96942.48;1803594;78;21151;-83
2021/04/19 07:50:17;;;;;;;10.90;7.78;;;;;;;9.86;65.90;96938.45;1805437;78;21147;-80
2021/04/19 07:53:05;;;;;;;14.70;10.45;;;;;;;9.83;67.07;96938.68;1806463;78;21421;-82
2021/04/19 07:55:39;;;;;;;11.63;10.40;;;;;;;9.94;67.08;96937.34;1812842;78;21130;-81
2021/04/19 07:58:23;;;;;;;10.40;6.72;;;;;;;10.08;66.81;96936.70;1813921;78;21150;-81
2021/04/19 08:01:04;;;;;;;9.88;6.42;;;;;;;10.00;65.25;96931.58;1826258;78;21138;-86
2021/04/19 08:03:41;;;;;;;11.43;7.55;;;;;;;9.83;65.01;96933.41;1810919;78;21121;-79
2021/04/19 08:06:22;;;;;;;9.38;8.38;;;;;;;9.91;65.73;96926.23;1805064;78;21170;-79
2021/04/19 08:08:49;;;;;;;8.63;7.67;;;;;;;10.11;65.15;96925.92;1805687;78;21170;-81
2021/04/19 08:11:20;;;;;;;11.25;9.40;;;;;;;10.33;64.87;96922.87;1814860;78;21131;-81
2021/04/19 08:14:01;;;;;;;10.63;8.98;;;;;;;10.46;64.26;96926.17;1817345;78;21162;-83
2021/04/19 08:16:29;;;;;;;10.35;7.87;;;;;;;10.55;63.45;96925.91;1773111;80;21168;-83
2021/04/19 08:19:08;;;;;;;9.90;7.80;;;;;;;10.62;62.29;96917.84;1752348;81;21140;-82
2021/04/19 08:21:35;;;;;;;11.80;7.75;;;;;;;10.80;63.54;96918.12;1724194;81;21168;-83
2021/04/19 08:24:16;;;;;;;10.90;6.80;;;;;;;10.90;60.06;96927.39;1726625;81;21116;-81
2021/04/19 08:26:55;;;;;;;12.30;6.92;;;;;;;10.94;62.23;96917.77;1674665;85;21775;-80
2021/04/19 08:29:44;;;;;;;9.25;6.28;;;;;;;10.95;61.47;96918.59;1677248;84;21195;-82
2021/04/19 08:32:22;;;;;;;8.58;7.65;;;;;;;11.09;60.99;96914.78;1679133;84;22385;-81
2021/04/19 08:34:51;;;;;;;8.73;6.90;;;;;;;11.08;60.65;96924.52;1676188;85;21591;-84
2021/04/19 08:37:23;;;;;;;10.00;7.80;;;;;;;11.01;60.84;96918.56;1668996;84;21219;-83
2021/04/19 08:40:04;;;;;;;10.58;8.18;;;;;;;11.05;61.00;96916.85;1815098;79;22931;-82
2021/04/19 08:42:34;;;;;;;12.47;6.90;;;;;;;10.99;60.26;96917.38;1802003;78;21144;-83
2021/04/19 08:45:05;;;;;;;8.68;6.47;;;;;;;10.85;58.48;96915.91;1827439;78;21147;-82
2021/04/19 08:47:34;;;;;;;7.85;6.28;;;;;;;10.85;60.81;96918.55;1820402;78;21559;-84
2021/04/19 08:50:07;;;;;;;8.00;6.83;;;;;;;10.83;60.57;96920.97;1795046;78;21519;-80
2021/04/19 08:52:44;;;;;;;11.70;7.67;;;;;;;10.75;61.00;96922.45;1761620;80;21723;-85
2021/04/19 08:55:14;;;;;;;8.80;7.87;;;;;;;10.62;61.02;96916.52;1755664;81;21174;-80
2021/04/19 08:57:46;;;;;;;7.95;6.45;;;;;;;10.63;60.79;96918.20;1742843;81;21631;-80
2021/04/19 09:00:21;;;;;;;11.80;7.97;;;;;;;10.59;60.90;96916.30;1744051;81;21300;-80
2021/04/19 09:03:00;;;;;;;10.98;8.35;;;;;;;10.61;60.73;96916.17;1825609;77;23364;-83
2021/04/19 09:05:28;;;;;;;8.68;5.95;;;;;;;10.62;61.26;96917.34;1813003;77;21572;-81
2021/04/19 09:08:09;;;;;;;9.90;7.60;;;;;;;10.72;60.85;96920.53;1798623;77;21167;-83
2021/04/19 09:11:06;;;;;;;12.70;8.55;;;;;;;10.48;60.55;96912.89;1789457;78;21157;-82
2021/04/19 09:13:43;;;;;;;12.28;7.95;;;;;;;10.31;61.50;96911.11;1821027;77;21144;-82
2021/04/19 09:16:24;;;;;;;10.90;7.62;;;;;;;10.48;61.79;96907.13;1797519;78;21191;-87
2021/04/19 09:19:02;;;;;;;9.18;8.05;;;;;;;10.56;61.58;96909.96;1796354;80;21145;-87
2021/04/19 09:21:43;;;;;;;14.47;10.32;;;;;;;10.54;60.58;96917.65;1808098;77;21161;-86
2021/04/19 09:24:14;;;;;;;11.28;9.85;;;;;;;10.48;61.32;96911.58;1800203;78;21597;-82
2021/04/19 09:26:52;;;;;;;14.45;9.68;;;;;;;10.54;61.27;96903.97;1761011;81;21157;-86
2021/04/19 09:29:31;;;;;;;10.85;8.38;;;;;;;10.67;61.08;96911.69;1704445;83;21175;-85
2021/04/19 09:32:08;;;;;;;10.25;7.75;;;;;;;10.66;61.01;96915.78;1707259;83;21185;-87
2021/04/19 09:34:49;;;;;;;13.43;8.10;;;;;;;10.65;61.30;96912.33;1715401;83;21123;-85
2021/04/19 09:37:42;;;;;;;9.15;8.13;;;;;;;10.46;60.31;96910.37;1858962;75;21682;-83
2021/04/19 09:40:24;;;;;;;10.05;6.35;;;;;;;10.36;60.77;96913.38;1821944;77;23081;-84
2021/04/19 09:43:04;;;;;;;12.25;8.43;;;;;;;10.42;61.32;96911.60;1803433;78;21149;-83
2021/04/19 09:45:50;;;;;;;11.08;8.50;;;;;;;10.40;61.46;96914.34;1824150;78;21675;-85
2021/04/19 09:48:39;;;;;;;10.00;7.22;;;;;;;10.47;61.48;96912.05;1822895;78;21112;-84
2021/04/19 09:51:40;;;;;;;9.28;7.37;;;;;;;10.32;60.54;96899.63;1761711;81;21138;-85
2021/04/19 09:54:27;;;;;;;9.25;6.72;;;;;;;10.29;60.71;96906.48;1743475;81;21131;-86
2021/04/19 09:57:16;;;;;;;9.98;6.87;;;;;;;10.28;60.46;96904.80;1738291;82;22453;-84
2021/04/19 09:59:44;;;;;;;11.73;8.48;;;;;;;10.21;60.85;96897.88;1740968;81;21143;-85
2021/04/19 10:02:13;;;;;;;11.38;8.70;;;;;;;10.27;61.21;96897.36;1762766;81;21301;-83
2021/04/19 10:04:45;;;;;;;10.58;8.30;;;;;;;10.39;61.24;96902.62;1770775;81;21281;-85
2021/04/19 10:07:18;;;;;;;12.63;8.05;;;;;;;10.49;60.70;96898.27;1746978;81;21384;-86
2021/04/19 10:09:47;;;;;;;10.85;8.65;;;;;;;10.53;59.81;96889.16;1764883;81;21135;-84
2021/04/19 10:12:24;;;;;;;11.63;8.00;;;;;;;10.72;60.71;96891.07;1749025;81;21131;-86
2021/04/19 10:14:52;;;;;;;11.57;7.05;;;;;;;10.91;60.81;96891.66;1760667;81;21202;-86
2021/04/19 10:17:22;;;;;;;11.60;8.23;;;;;;;11.09;59.94;96880.03;1729810;83;21188;-86
2021/04/19 10:19:51;;;;;;;10.43;8.58;;;;;;;11.09;60.13;96877.86;1763501;80;21123;-86
2021/04/19 10:22:18;;;;;;;12.00;7.72;;;;;;;11.13;58.43;96884.55;1765970;80;21135;-82
2021/04/19 10:24:57;;;;;;;10.80;8.00;;;;;;;11.29;59.70;96880.11;1777182;81;21132;-82
2021/04/19 10:27:32;;;;;;;11.65;7.60;;;;;;;11.43;59.42;96880.70;1777976;81;21179;-84
2021/04/19 10:30:16;;;;;;;8.58;7.08;;;;;;;11.63;59.06;96880.30;1746281;81;21131;-81
2021/04/19 10:32:45;;;;;;;9.38;7.50;;;;;;;11.84;57.51;96876.23;1770859;81;21297;-86
2021/04/19 10:35:43;;;;;;;11.35;7.65;;;;;;;11.81;57.23;96878.66;1763924;81;21172;-82
2021/04/19 10:38:11;;;;;;;8.38;6.60;;;;;;;11.80;56.46;96880.95;1761740;81;21664;-85
2021/04/19 10:40:38;;;;;;;6.72;5.83;;;;;;;11.96;56.92;96871.65;1744191;81;21180;-85
2021/04/19 10:43:10;;;;;;;8.68;6.20;;;;;;;11.83;54.53;96878.02;1769442;81;21139;-82
2021/04/19 10:45:42;;;;;;;10.70;7.03;;;;;;;11.58;54.84;96870.61;1769484;81;21704;-86
2021/04/19 10:48:27;;;;;;;8.65;6.45;;;;;;;11.58;56.09;96868.81;1752219;81;21164;-84
2021/04/19 10:51:21;;;;;;;9.55;6.80;;;;;;;11.70;56.42;96868.21;1745550;81;21105;-84
2021/04/19 10:53:59;;;;;;;7.25;6.33;;;;;;;11.83;56.07;96866.13;1739840;82;21111;-87
2021/04/19 10:56:27;;;;;;;10.45;6.95;;;;;;;12.10;56.67;96861.20;1740665;81;21609;-87
2021/04/19 10:59:07;;;;;;;8.75;7.00;;;;;;;12.36;56.95;96864.12;1760055;81;21159;-89
2021/04/19 11:01:38;;;;;;;7.62;6.42;;;;;;;12.43;55.38;96862.58;1745411;81;21134;-90
2021/04/19 11:04:09;;;;;;;6.83;5.53;;;;;;;12.30;53.66;96858.91;1730833;82;21146;-88
2021/04/19 11:06:38;;;;;;;8.30;6.67;;;;;;;12.36;55.18;96856.66;1748881;81;21158;-86
2021/04/19 11:09:16;;;;;;;12.30;6.15;;;;;;;12.45;55.10;96861.11;1738602;82;21623;-87
2021/04/19 11:11:47;;;;;;;7.75;5.30;;;;;;;12.37;53.54;96856.55;1749798;81;21179;-84
2021/04/19 11:14:28;;;;;;;8.45;5.20;;;;;;;12.37;54.50;96856.55;1738888;82;21173;-87
2021/04/19 11:17:04;;;;;;;11.25;6.60;;;;;;;12.33;54.47;96850.70;1693802;82;21151;-85
2021/04/19 11:19:42;;;;;;;10.63;6.70;;;;;;;12.16;54.42;96853.55;1738694;82;21631;-86
2021/04/19 11:22:33;;;;;;;10.10;6.40;;;;;;;12.09;53.97;96852.92;1756222;81;21514;-85
2021/04/19 11:25:31;;;;;;;7.12;5.45;;;;;;;12.06;54.72;96855.36;1767744;81;21187;-86
2021/04/19 11:28:29;;;;;;;12.05;6.60;;;;;;;12.02;54.67;96849.98;1769346;81;21199;-90
2021/04/19 11:31:00;;;;;;;11.97;6.47;;;;;;;11.82;54.60;96857.89;1766060;81;21166;-89
2021/04/19 11:33:38;;;;;;;9.98;7.12;;;;;;;11.81;54.33;96851.41;1759282;81;21141;-83
2021/04/19 11:36:08;;;;;;;10.25;6.58;;;;;;;11.85;54.92;96850.17;1747950;81;21569;-86
2021/04/19 11:38:39;;;;;;;6.72;5.55;;;;;;;11.76;54.75;96847.86;1744331;81;21168;-89
2021/04/19 11:41:12;;;;;;;8.80;6.50;;;;;;;11.77;54.51;96853.48;1752561;82;21151;-87
2021/04/19 11:43:53;;;;;;;9.68;5.75;;;;;;;11.58;54.63;96849.48;1750110;82;21154;-81
2021/04/19 11:46:24;;;;;;;9.80;6.95;;;;;;;11.43;55.02;96849.88;1749636;81;21104;-89
2021/04/19 11:48:52;;;;;;;9.48;7.08;;;;;;;11.43;55.53;96845.92;1748348;82;21146;-86
2021/04/19 11:51:22;;;;;;;9.83;6.80;;;;;;;11.38;55.39;96846.80;1726671;83;21152;-86
2021/04/19 11:53:50;;;;;;;7.70;6.33;;;;;;;11.44;55.65;96838.36;1723190;83;22111;-85
2021/04/19 11:56:21;;;;;;;9.98;6.33;;;;;;;11.37;55.28;96839.84;1817510;79;21182;-85
2021/04/19 11:58:50;;;;;;;8.50;6.08;;;;;;;11.30;55.36;96829.48;1786979;79;21641;-83
2021/04/19 12:01:21;;;;;;;11.48;8.50;;;;;;;11.34;55.70;96834.36;1817371;79;21135;-86
2021/04/19 12:03:51;;;;;;;7.70;6.22;;;;;;;11.46;55.94;96831.61;1818748;79;21154;-84
2021/04/19 12:06:26;;;;;;;8.35;6.47;;;;;;;11.54;56.06;96833.94;1811608;78;21130;-84